createdAt,value
2018-04-14T00:03:52.145Z,28.20
2018-04-14T00:08:25.356Z,20.27
2018-04-14T00:12:58.598Z,18.73
2018-04-14T00:17:32.554Z,11.90
2018-04-14T00:22:05.757Z,10.10
2018-04-14T00:26:38.947Z,8.10
2018-04-14T00:31:12.919Z,9.63
2018-04-14T00:35:46.366Z,8.93
2018-04-14T00:40:21.055Z,8.60
2018-04-14T00:44:54.241Z,6.30
2018-04-14T00:49:27.498Z,9.47
2018-04-14T00:54:00.733Z,6.53
2018-04-14T00:58:34.949Z,10.63
2018-04-14T01:03:08.166Z,14.27
2018-04-14T01:07:42.172Z,10.90
2018-04-14T01:12:15.407Z,8.53
2018-04-14T01:16:49.415Z,7.33
2018-04-14T01:21:22.627Z,6.13
2018-04-14T01:25:57.333Z,6.30
2018-04-14T01:30:30.567Z,7.57
2018-04-14T01:35:03.789Z,6.23
2018-04-14T01:39:37.033Z,6.83
2018-04-14T01:44:10.283Z,16.63
2018-04-14T01:48:43.527Z,11.87
2018-04-14T01:53:17.490Z,10.13
2018-04-14T01:57:50.744Z,13.97
2018-04-14T02:02:24.873Z,14.27
2018-04-14T02:06:58.872Z,11.73
2018-04-14T02:11:32.088Z,13.47
2018-04-14T02:16:05.319Z,7.67
2018-04-14T02:20:39.311Z,13.77
2018-04-14T02:25:12.563Z,10.60
2018-04-14T02:29:46.606Z,10.13
2018-04-14T02:34:19.868Z,10.20
2018-04-14T02:38:53.359Z,13.40
2018-04-14T02:43:26.567Z,9.50
2018-04-14T02:47:59.815Z,14.47
2018-04-14T02:52:33.818Z,9.17
2018-04-14T02:57:07.060Z,7.83
2018-04-14T03:01:41.028Z,8.40
2018-04-14T03:06:14.193Z,7.53
2018-04-14T03:10:48.221Z,6.73
2018-04-14T03:15:21.405Z,6.03
2018-04-14T03:19:54.591Z,13.30
2018-04-14T03:24:27.961Z,7.00
2018-04-14T03:29:01.243Z,7.90
2018-04-14T03:33:34.542Z,7.83
2018-04-14T03:38:07.860Z,7.83
2018-04-14T03:42:41.863Z,8.27
2018-04-14T03:47:15.057Z,6.43
2018-04-14T03:51:49.036Z,7.73
2018-04-14T03:56:22.222Z,7.03
2018-04-14T04:00:56.170Z,6.53
2018-04-14T04:05:29.397Z,6.43
2018-04-14T04:10:02.588Z,6.27
2018-04-14T04:14:35.867Z,7.93
2018-04-14T04:19:21.738Z,6.13
2018-04-14T04:24:06.749Z,8.10
2018-04-14T04:28:41.711Z,8.37
2018-04-14T04:33:15.016Z,9.03
2018-04-14T04:37:48.220Z,7.93
2018-04-14T04:42:22.297Z,8.10
2018-04-14T04:46:55.659Z,7.87
2018-04-14T04:51:29.695Z,7.70
2018-04-14T04:56:02.855Z,8.73
2018-04-14T05:00:36.085Z,9.07
2018-04-14T05:05:10.041Z,8.53
2018-04-14T05:09:44.029Z,7.10
2018-04-14T05:14:18.076Z,7.87
2018-04-14T05:18:52.297Z,11.27
2018-04-14T05:23:26.492Z,9.60
2018-04-14T05:27:59.755Z,6.70
2018-04-14T05:32:33.143Z,7.37
2018-04-14T05:37:07.136Z,6.90
2018-04-14T05:41:40.600Z,7.57
2018-04-14T05:46:13.903Z,10.80
2018-04-14T05:50:47.294Z,8.70
2018-04-14T05:55:21.336Z,9.23
2018-04-14T05:59:54.580Z,8.33
2018-04-14T06:04:27.949Z,9.47
2018-04-14T06:09:02.029Z,10.87
2018-04-14T06:13:35.291Z,8.93
2018-04-14T06:18:09.301Z,8.57
2018-04-14T06:22:43.328Z,8.90
2018-04-14T06:27:17.561Z,12.43
2018-04-14T06:31:50.806Z,14.30
2018-04-14T06:36:24.011Z,10.43
2018-04-14T06:40:57.280Z,10.17
2018-04-14T06:45:30.474Z,7.73
2018-04-14T06:50:03.686Z,10.40
2018-04-14T06:54:36.922Z,7.53
2018-04-14T06:59:10.110Z,8.67
2018-04-14T07:03:44.083Z,9.60
2018-04-14T07:08:17.997Z,9.43
2018-04-14T07:12:52.017Z,10.60
2018-04-14T07:17:25.244Z,12.13
2018-04-14T07:22:00.876Z,15.60
2018-04-14T07:26:34.149Z,13.83
2018-04-14T07:31:08.114Z,11.50
2018-04-14T07:35:41.335Z,11.47
2018-04-14T07:40:14.559Z,11.90
2018-04-14T07:44:47.786Z,10.50
2018-04-14T07:49:22.479Z,8.07
2018-04-14T07:53:55.674Z,7.37
2018-04-14T07:58:28.957Z,6.37
2018-04-14T08:03:02.993Z,5.80
2018-04-14T08:07:37.006Z,9.63
2018-04-14T08:12:10.998Z,5.82
2018-04-14T08:16:44.189Z,6.57
2018-04-14T08:21:17.391Z,4.35
2018-04-14T08:25:50.658Z,5.00
2018-04-14T08:30:24.628Z,4.75
2018-04-14T08:34:57.866Z,6.30
2018-04-14T08:39:32.594Z,5.62
2018-04-14T08:44:05.771Z,3.92
2018-04-14T08:48:38.954Z,3.95
2018-04-14T08:53:12.901Z,9.90
2018-04-14T08:57:46.114Z,4.82
2018-04-14T09:02:19.338Z,3.55
2018-04-14T09:06:52.883Z,3.83
2018-04-14T09:11:26.056Z,5.10
2018-04-14T09:15:59.314Z,3.33
2018-04-14T09:20:33.318Z,5.55
2018-04-14T09:25:06.548Z,5.95
2018-04-14T09:29:40.547Z,5.10
2018-04-14T09:34:14.527Z,4.55
2018-04-14T09:38:47.734Z,4.22
2018-04-14T09:43:20.936Z,5.85
2018-04-14T09:47:54.183Z,4.57
2018-04-14T09:52:27.438Z,3.33
2018-04-14T09:57:00.656Z,2.03
2018-04-14T10:01:33.913Z,2.60
2018-04-14T10:06:07.121Z,1.83
2018-04-14T10:10:40.423Z,4.10
2018-04-14T10:15:13.763Z,4.32
2018-04-14T10:19:47.776Z,5.57
2018-04-14T10:24:21.006Z,7.93
2018-04-14T10:28:54.237Z,8.40
2018-04-14T10:33:27.435Z,4.65
2018-04-14T10:38:00.793Z,4.78
2018-04-14T10:42:34.032Z,6.75
2018-04-14T10:47:08.003Z,7.85
2018-04-14T10:51:41.238Z,9.90
2018-04-14T10:56:14.462Z,7.28
2018-04-14T11:00:47.706Z,6.50
2018-04-14T11:05:23.265Z,4.95
2018-04-14T11:09:56.547Z,2.90
2018-04-14T11:14:33.254Z,2.70
2018-04-14T11:19:07.886Z,4.80
2018-04-14T11:23:41.864Z,5.97
2018-04-14T11:28:15.019Z,3.92
2018-04-14T11:32:49.288Z,5.28
2018-04-14T11:37:22.647Z,3.35
2018-04-14T11:41:56.677Z,6.43
2018-04-14T11:46:30.815Z,2.35
2018-04-14T11:51:05.133Z,6.15
2018-04-14T11:55:39.094Z,2.83
2018-04-14T12:00:12.305Z,2.33
2018-04-14T12:04:45.555Z,2.37
2018-04-14T12:09:20.029Z,2.92
2018-04-14T12:13:53.377Z,4.78
2018-04-14T12:18:26.540Z,3.42
2018-04-14T12:22:59.730Z,2.25
2018-04-14T12:27:33.724Z,3.85
2018-04-14T12:32:06.964Z,1.80
2018-04-14T12:36:40.957Z,3.95
2018-04-14T12:41:14.205Z,2.53
2018-04-14T12:45:47.405Z,1.50
2018-04-14T12:50:21.350Z,2.65
2018-04-14T12:54:55.657Z,4.43
2018-04-14T12:59:29.764Z,2.53
2018-04-14T13:04:03.014Z,3.62
2018-04-14T13:08:36.178Z,2.30
2018-04-14T13:13:09.428Z,1.98
2018-04-14T13:17:43.093Z,2.60
2018-04-14T13:22:16.290Z,4.57
2018-04-14T13:26:49.474Z,2.53
2018-04-14T13:31:22.719Z,2.97
2018-04-14T13:35:56.156Z,1.73
2018-04-14T13:40:30.098Z,4.28
2018-04-14T13:45:04.135Z,3.58
2018-04-14T13:49:37.422Z,2.05
2018-04-14T13:54:10.662Z,3.35
2018-04-14T13:58:43.896Z,4.35
2018-04-14T14:03:17.098Z,2.92
2018-04-14T14:07:50.335Z,2.90
2018-04-14T14:12:25.187Z,3.05
2018-04-14T14:16:59.220Z,3.15
2018-04-14T14:21:34.484Z,5.12
2018-04-14T14:26:08.455Z,3.35
2018-04-14T14:30:41.795Z,3.87
2018-04-14T14:35:16.731Z,3.22
2018-04-14T14:39:51.202Z,3.22
2018-04-14T14:44:24.463Z,1.60
2018-04-14T14:48:57.698Z,1.73
2018-04-14T14:53:31.010Z,2.22
2018-04-14T14:58:04.261Z,1.90
2018-04-14T15:02:37.487Z,3.87
2018-04-14T15:07:10.690Z,2.20
2018-04-14T15:11:43.917Z,4.03
2018-04-14T15:16:20.756Z,2.62
2018-04-14T15:20:55.026Z,2.30
2018-04-14T15:25:28.252Z,2.00
2018-04-14T15:30:01.453Z,2.58
2018-04-14T15:34:34.700Z,4.47
2018-04-14T15:39:08.825Z,3.70
2018-04-14T15:43:42.141Z,3.05
2018-04-14T15:48:15.350Z,2.72
2018-04-14T15:52:48.594Z,2.60
2018-04-14T15:57:21.829Z,18.98
2018-04-14T16:01:56.594Z,8.40
2018-04-14T16:06:30.570Z,5.72
2018-04-14T16:11:03.778Z,7.62
2018-04-14T16:20:58.185Z,4.15
2018-04-14T16:25:32.455Z,6.03
2018-04-14T16:30:05.702Z,3.05
2018-04-14T16:34:40.844Z,3.97
2018-04-14T16:39:15.486Z,2.25
2018-04-14T16:43:51.202Z,2.87
2018-04-14T16:48:24.550Z,3.28
2018-04-14T16:53:00.384Z,2.47
2018-04-14T16:57:33.659Z,2.78
2018-04-14T17:02:14.852Z,3.72
2018-04-14T17:06:53.205Z,3.95
2018-04-14T17:11:27.252Z,4.95
2018-04-14T17:16:00.456Z,3.20
2018-04-14T17:20:33.719Z,7.62
2018-04-14T17:25:07.800Z,8.05
2018-04-14T17:29:41.024Z,8.65
2018-04-14T17:34:14.577Z,4.70
2018-04-14T17:38:48.782Z,3.33
2018-04-14T17:43:23.209Z,4.05
2018-04-14T17:47:57.205Z,6.18
2018-04-14T17:52:30.407Z,3.75
2018-04-14T17:57:05.092Z,5.32
2018-04-14T18:01:38.406Z,8.98
2018-04-14T18:06:12.577Z,14.23
2018-04-14T18:10:46.960Z,15.27
2018-04-14T18:15:21.001Z,19.17
2018-04-14T18:19:56.064Z,35.78
2018-04-14T18:24:30.790Z,36.25
2018-04-14T18:29:05.223Z,28.67
2018-04-14T18:33:38.852Z,17.73
2018-04-14T18:38:12.461Z,12.52
2018-04-14T18:42:47.307Z,96.07
2018-04-14T18:47:20.946Z,22.95
2018-04-14T18:51:54.848Z,39.03
2018-04-14T18:56:28.631Z,58.60
2018-04-14T19:01:02.175Z,19.27
2018-04-14T19:05:39.282Z,9.43
2018-04-14T19:10:13.267Z,29.52
2018-04-14T19:14:46.494Z,21.35
2018-04-14T19:19:19.709Z,41.67
2018-04-14T19:23:53.714Z,79.28
2018-04-14T19:28:27.018Z,48.78
2018-04-14T19:33:00.228Z,27.15
2018-04-14T19:37:34.263Z,28.15
2018-04-14T19:42:09.530Z,22.77
2018-04-14T19:46:42.986Z,35.35
2018-04-14T19:51:16.209Z,30.37
2018-04-14T19:55:49.788Z,36.45
2018-04-14T20:00:27.316Z,22.85
2018-04-14T20:05:05.587Z,16.45
2018-04-14T20:09:39.813Z,9.95
2018-04-14T20:14:13.072Z,12.25
2018-04-14T20:18:46.338Z,9.82
2018-04-14T20:23:19.659Z,14.70
2018-04-14T20:27:54.289Z,15.02
2018-04-14T20:32:27.610Z,21.27
2018-04-14T20:37:01.962Z,17.00
2018-04-14T20:41:36.123Z,15.00
2018-04-14T20:46:10.817Z,13.88
2018-04-14T20:50:44.132Z,13.45
2018-04-14T20:55:17.562Z,21.70
2018-04-14T20:59:50.949Z,17.92
2018-04-14T21:04:25.381Z,12.02
2018-04-14T21:08:58.691Z,7.28
2018-04-14T21:13:32.932Z,10.32
2018-04-14T21:18:08.647Z,38.38
2018-04-14T21:22:42.742Z,46.65
2018-04-14T21:27:15.987Z,36.53
2018-04-14T21:31:49.215Z,11.60
2018-04-14T21:36:23.201Z,28.52
2018-04-14T21:40:56.594Z,13.73
2018-04-14T21:45:31.796Z,10.77
2018-04-14T21:50:05.824Z,19.15
2018-04-14T21:54:39.244Z,14.25
2018-04-14T21:59:13.476Z,27.85
2018-04-14T22:03:47.478Z,34.03
2018-04-14T22:08:20.676Z,10.18
2018-04-14T22:12:54.248Z,8.98
2018-04-14T22:17:27.602Z,16.55
2018-04-14T22:22:00.859Z,19.92
2018-04-14T22:26:34.092Z,20.50
2018-04-14T22:31:07.317Z,17.23
2018-04-14T22:35:40.519Z,22.30
2018-04-14T22:40:13.760Z,31.67
2018-04-14T22:44:47.786Z,60.95
2018-04-14T22:49:21.042Z,32.53
2018-04-14T22:53:54.295Z,29.35
2018-04-14T22:58:27.627Z,15.82
2018-04-14T23:03:01.644Z,9.20
2018-04-14T23:07:34.905Z,8.57
2018-04-14T23:12:08.180Z,6.77
2018-04-14T23:16:41.386Z,6.20
2018-04-14T23:21:15.378Z,6.70
2018-04-14T23:25:48.616Z,6.03
2018-04-14T23:30:22.600Z,5.70
2018-04-14T23:34:56.049Z,4.37
2018-04-14T23:39:30.069Z,7.25
2018-04-14T23:44:04.038Z,4.93
2018-04-14T23:48:37.251Z,6.57
2018-04-14T23:53:10.625Z,4.27
2018-04-14T23:57:44.583Z,4.30
